Bookmark and Share
Track history (hours):
 

M/V Crown Charger

More information available from US FCC via Universal Licensing System and Coast Guard Vessel Documentation Center.

Last reported at 2012-Dec-22 03:33 UTC. Time now 2014-Apr-17 21:57 UTC.
Position N 29°33' W 090°20'.
Warning: this ship's position is years out of date!

Length 39 m.

Type: Tow > 200 m length. MMSI: 367364630.

NotesDate/timePositionNaut miles runAvg speedWind from/ knotsBaromVisibWave heightAir tempDewpointWater temp
2012-Dec-22 03:33N 29°33' W 090°20'3 2.9
2012-Dec-22 02:30N 29°35' W 090°23'6 6.4
2012-Dec-22 01:33N 29°39' W 090°17'7 6.8
2012-Dec-22 00:34N 29°42' W 090°10'7 6.5
2012-Dec-21 23:33N 29°46' W 090°04'6 6.0
2012-Dec-21 22:33N 29°52' W 090°04'2 2.5
2012-Dec-21 21:33N 29°55' W 090°05'2 2.2
2012-Dec-21 20:33N 29°54' W 090°07'3 3.1
2012-Dec-21 19:33N 29°55' W 090°04'3 3.2
2012-Dec-21 18:33N 29°58' W 090°02'2 2.3
2012-Dec-21 17:33N 29°60' W 090°00'1 0.6
2012-Dec-21 16:29N 29°60' W 089°60'3 0.1
2012-Dec-20 18:33N 29°57' W 090°02'2 0.4
2012-Dec-20 13:33N 29°56' W 090°03'4 4.0
2012-Dec-20 12:34N 29°54' W 090°07'0 0.0
2012-Dec-20 11:38N 29°54' W 090°07'0 0.0
2012-Dec-20 10:33N 29°54' W 090°07'0 0.0
2012-Dec-20 09:34N 29°54' W 090°07'0 0.0
2012-Dec-20 08:33N 29°54' W 090°07'0 0.0
2012-Dec-20 07:34N 29°54' W 090°07'0 0.0
2012-Dec-20 06:33N 29°54' W 090°07'0 0.0
2012-Dec-20 05:37N 29°54' W 090°07'3 3.3
2012-Dec-20 04:34N 29°55' W 090°04'3 3.2
2012-Dec-20 03:33N 29°54' W 090°07'4 4.0
2012-Dec-20 02:33N 29°57' W 090°04'  
2012-Dec-16 19:33N 29°55' W 090°04'0 0.0
2012-Dec-16 18:34N 29°55' W 090°04'0 0.1
2012-Dec-16 17:34N 29°56' W 090°04'3 3.4
2012-Dec-16 16:33N 29°54' W 090°07'0 0.0
2012-Dec-16 15:34N 29°54' W 090°07'0 0.4
2012-Dec-16 14:34N 29°54' W 090°07'  
2012-Dec-13 10:32N 29°58' W 090°02'0 0.4
2012-Dec-13 09:30N 29°57' W 090°02'3 2.7
2012-Dec-13 08:34N 29°55' W 090°04'0 0.0
2012-Dec-13 07:30N 29°55' W 090°04'3 3.3
2012-Dec-13 06:34N 29°54' W 090°07'4 3.9
2012-Dec-13 05:36N 29°56' W 090°04'  

Dump ship's entire track history

sailing weather and tide predictions

M/V Crown Charger — WDE5300 — position and weather